Time;durP1;ratioP1;P1;durP2;ratioP2;P2;SDS_P1;SDS_P2;PMS_P1;PMS_P2;Temp;Humidity;BMP_temperature;BMP_pressure;BME280_temperature;BME280_humidity;BME280_pressure;Samples;Min_cycle;Max_cycle;Signal;HPM_P1;HPM_P2
2021/05/05 00:01:32;;;;;;;;;;;21.90;67.80;;;;;;5104639;28;19908;-64
2021/05/05 00:03:58;;;;;;;;;;;21.90;67.90;;;;;;5103888;28;19967;-63
2021/05/05 00:06:24;;;;;;;;;;;21.90;67.90;;;;;;5103792;28;19926;-64
2021/05/05 00:08:50;;;;;;;;;;;21.90;67.80;;;;;;5104054;28;19904;-64
2021/05/05 00:11:16;;;;;;;;;;;21.90;67.80;;;;;;5102823;28;20400;-65
2021/05/05 00:13:42;;;;;;;;;;;21.90;67.90;;;;;;5103142;28;19965;-65
2021/05/05 00:16:09;;;;;;;;;;;21.90;67.90;;;;;;5102479;28;19908;-65
2021/05/05 00:18:35;;;;;;;;;;;21.90;67.90;;;;;;5103995;28;19991;-65
2021/05/05 00:21:02;;;;;;;;;;;21.90;67.80;;;;;;5103533;28;20411;-62
2021/05/05 00:23:28;;;;;;;;;;;21.90;67.70;;;;;;5103093;28;19922;-64
2021/05/05 00:25:53;;;;;;;;;;;21.90;67.80;;;;;;5103448;28;19908;-65
2021/05/05 00:28:19;;;;;;;;;;;21.90;67.80;;;;;;5103548;28;19908;-64
2021/05/05 00:30:45;;;;;;;;;;;21.90;67.80;;;;;;5102631;28;19907;-64
2021/05/05 00:33:11;;;;;;;;;;;21.90;67.80;;;;;;5107659;28;19908;-66
2021/05/05 00:35:37;;;;;;;;;;;21.90;67.80;;;;;;5103343;28;19919;-65
2021/05/05 00:38:03;;;;;;;;;;;21.90;67.90;;;;;;5103164;28;19915;-66
2021/05/05 00:40:29;;;;;;;;;;;21.80;67.80;;;;;;5103256;28;19963;-65
2021/05/05 00:42:55;;;;;;;;;;;21.80;67.70;;;;;;5103294;28;19977;-65
2021/05/05 00:45:21;;;;;;;;;;;21.80;67.80;;;;;;5102777;28;19975;-65
2021/05/05 00:47:47;;;;;;;;;;;21.80;67.70;;;;;;5103341;28;19923;-64
2021/05/05 00:50:14;;;;;;;;;;;21.80;67.80;;;;;;5110606;28;19907;-63
2021/05/05 00:52:40;;;;;;;;;;;21.80;67.80;;;;;;5103072;28;19935;-63
2021/05/05 00:55:06;;;;;;;;;;;21.80;67.90;;;;;;5102735;28;20258;-64
2021/05/05 00:57:32;;;;;;;;;;;21.80;67.90;;;;;;5102998;28;19970;-63
2021/05/05 00:59:57;;;;;;;;;;;21.80;67.80;;;;;;5102594;28;20616;-63
2021/05/05 01:02:23;;;;;;;;;;;21.80;67.80;;;;;;5102620;28;19915;-63
2021/05/05 01:04:49;;;;;;;;;;;21.80;67.80;;;;;;5102714;28;19904;-63
2021/05/05 01:07:15;;;;;;;;;;;21.80;67.80;;;;;;5102980;28;19962;-64
2021/05/05 01:09:44;;;;;;;;;;;21.80;67.80;;;;;;5102212;28;20484;-65
2021/05/05 01:12:11;;;;;;;;;;;21.80;67.80;;;;;;5102469;28;19920;-65
2021/05/05 01:14:37;;;;;;;;;;;21.80;67.90;;;;;;5102382;28;19946;-65
2021/05/05 01:17:03;;;;;;;;;;;21.80;67.80;;;;;;5100221;28;20320;-65
2021/05/05 01:19:29;;;;;;;;;;;21.80;67.80;;;;;;5101516;28;20425;-65
2021/05/05 01:21:55;;;;;;;;;;;21.80;67.80;;;;;;5103007;28;19915;-64
2021/05/05 01:24:20;;;;;;;;;;;21.80;67.80;;;;;;5102190;28;19904;-63
2021/05/05 01:26:46;;;;;;;;;;;21.70;67.70;;;;;;5101906;28;19912;-64
2021/05/05 01:29:12;;;;;;;;;;;21.70;67.70;;;;;;5102633;28;19961;-65
2021/05/05 01:31:38;;;;;;;;;;;21.80;67.90;;;;;;5102155;28;19915;-65
2021/05/05 01:34:04;;;;;;;;;;;21.70;67.80;;;;;;5102634;28;19947;-65
2021/05/05 01:36:31;;;;;;;;;;;21.70;67.80;;;;;;5102296;28;19957;-65
2021/05/05 01:38:57;;;;;;;;;;;21.70;67.80;;;;;;5099017;28;19916;-65
2021/05/05 01:41:23;;;;;;;;;;;21.70;67.90;;;;;;5101651;28;20258;-65
2021/05/05 01:43:49;;;;;;;;;;;21.70;67.90;;;;;;5101855;28;19915;-65
2021/05/05 01:46:15;;;;;;;;;;;21.70;67.90;;;;;;5101437;28;19915;-64
2021/05/05 01:48:41;;;;;;;;;;;21.70;67.90;;;;;;5102188;28;19947;-64
2021/05/05 01:51:07;;;;;;;;;;;21.70;67.90;;;;;;5102028;28;19904;-64
2021/05/05 01:53:33;;;;;;;;;;;21.70;67.80;;;;;;5102643;28;19914;-65
2021/05/05 01:56:00;;;;;;;;;;;21.70;67.90;;;;;;5102197;28;19931;-63
2021/05/05 01:58:26;;;;;;;;;;;21.70;67.90;;;;;;5102357;28;19908;-65
2021/05/05 02:00:52;;;;;;;;;;;21.70;67.80;;;;;;5102071;28;20551;-64
2021/05/05 02:03:17;;;;;;;;;;;21.70;67.80;;;;;;5102262;28;19915;-65
2021/05/05 02:05:43;;;;;;;;;;;21.70;67.90;;;;;;5101539;28;19915;-64
2021/05/05 02:08:09;;;;;;;;;;;21.70;67.90;;;;;;5102556;28;19908;-66
2021/05/05 02:10:35;;;;;;;;;;;21.70;67.80;;;;;;5102434;28;19920;-64
2021/05/05 02:13:01;;;;;;;;;;;21.70;67.80;;;;;;5098941;28;19912;-64
2021/05/05 02:15:27;;;;;;;;;;;21.70;67.90;;;;;;5101730;28;19912;-64
2021/05/05 02:17:53;;;;;;;;;;;21.70;67.90;;;;;;5101737;28;19907;-64
2021/05/05 02:20:22;;;;;;;;;;;21.60;67.80;;;;;;5102018;28;19911;-66
2021/05/05 02:22:48;;;;;;;;;;;21.60;67.80;;;;;;5101670;28;19971;-65
2021/05/05 02:25:14;;;;;;;;;;;21.60;67.80;;;;;;5102940;28;19915;-65
2021/05/05 02:27:40;;;;;;;;;;;21.60;67.80;;;;;;5102736;28;19908;-65
2021/05/05 02:30:06;;;;;;;;;;;21.60;67.90;;;;;;5101687;28;19904;-65
2021/05/05 02:32:32;;;;;;;;;;;21.60;67.80;;;;;;5102013;28;19908;-65
2021/05/05 02:34:58;;;;;;;;;;;21.70;67.90;;;;;;5101694;28;19915;-64
2021/05/05 02:37:24;;;;;;;;;;;21.60;67.80;;;;;;5102112;28;19912;-64
2021/05/05 02:39:50;;;;;;;;;;;21.70;67.90;;;;;;5104928;28;20002;-63
2021/05/05 02:42:17;;;;;;;;;;;21.60;67.90;;;;;;5106353;28;19915;-65
2021/05/05 02:44:45;;;;;;;;;;;21.60;67.90;;;;;;5105533;28;19931;-64
2021/05/05 02:47:10;;;;;;;;;;;21.60;67.90;;;;;;5105303;28;19963;-64
2021/05/05 02:49:36;;;;;;;;;;;21.60;67.90;;;;;;5105723;28;19912;-64
2021/05/05 02:52:02;;;;;;;;;;;21.60;67.80;;;;;;5105697;28;19980;-64
2021/05/05 02:54:29;;;;;;;;;;;21.60;67.90;;;;;;5105832;28;20360;-63
2021/05/05 02:56:55;;;;;;;;;;;21.60;68.00;;;;;;5105306;28;19912;-63
2021/05/05 02:59:21;;;;;;;;;;;21.60;68.00;;;;;;5087119;28;19953;-64
2021/05/05 03:01:46;;;;;;;;;;;21.60;67.90;;;;;;5105151;28;20007;-65
2021/05/05 03:04:12;;;;;;;;;;;21.60;68.00;;;;;;5105314;28;19915;-65
2021/05/05 03:06:38;;;;;;;;;;;21.60;67.90;;;;;;5105410;28;19976;-65
2021/05/05 03:09:04;;;;;;;;;;;21.60;68.00;;;;;;5105789;28;20438;-64
2021/05/05 03:11:30;;;;;;;;;;;21.60;68.00;;;;;;5104086;28;19920;-64
2021/05/05 03:13:56;;;;;;;;;;;21.60;68.00;;;;;;5105533;28;19918;-65
2021/05/05 03:16:22;;;;;;;;;;;21.50;67.90;;;;;;5104394;28;20003;-65
2021/05/05 03:18:48;;;;;;;;;;;21.50;68.00;;;;;;5104274;28;19908;-64
2021/05/05 03:21:14;;;;;;;;;;;21.50;67.90;;;;;;5104796;28;20283;-64
2021/05/05 03:23:40;;;;;;;;;;;21.50;67.90;;;;;;5087349;28;19922;-64
2021/05/05 03:26:06;;;;;;;;;;;21.50;67.90;;;;;;5104725;28;20765;-64
2021/05/05 03:28:32;;;;;;;;;;;21.50;67.90;;;;;;5104908;28;19908;-64
2021/05/05 03:30:58;;;;;;;;;;;21.50;67.90;;;;;;5104759;28;19958;-64
2021/05/05 03:33:24;;;;;;;;;;;21.50;67.90;;;;;;5086163;28;19911;-65
2021/05/05 03:35:49;;;;;;;;;;;21.50;67.90;;;;;;5104680;28;19914;-64
2021/05/05 03:38:15;;;;;;;;;;;21.50;67.80;;;;;;5104455;28;19907;-64
2021/05/05 03:40:41;;;;;;;;;;;21.50;68.00;;;;;;5104459;28;19983;-63
2021/05/05 03:43:07;;;;;;;;;;;21.50;68.00;;;;;;5104474;28;19947;-62
2021/05/05 03:45:33;;;;;;;;;;;21.50;67.90;;;;;;5104843;28;19967;-62
2021/05/05 03:47:59;;;;;;;;;;;21.50;68.00;;;;;;5103943;28;19912;-61
2021/05/05 03:50:25;;;;;;;;;;;21.50;68.00;;;;;;5103354;28;19973;-60
2021/05/05 03:52:51;;;;;;;;;;;21.50;68.00;;;;;;5104915;28;19922;-61
2021/05/05 03:55:17;;;;;;;;;;;21.50;68.00;;;;;;5104116;28;19912;-60
2021/05/05 03:57:43;;;;;;;;;;;21.50;68.10;;;;;;5104470;28;19946;-60
2021/05/05 04:00:09;;;;;;;;;;;21.40;68.00;;;;;;5086151;28;20459;-60
2021/05/05 04:02:35;;;;;;;;;;;21.50;68.10;;;;;;5104276;28;19979;-60
2021/05/05 04:05:02;;;;;;;;;;;21.40;68.10;;;;;;5104463;28;19908;-59
2021/05/05 04:07:28;;;;;;;;;;;21.40;68.10;;;;;;5104426;28;19907;-59
2021/05/05 04:09:55;;;;;;;;;;;21.40;68.20;;;;;;5103806;28;19910;-59
2021/05/05 04:12:21;;;;;;;;;;;21.40;68.10;;;;;;5103998;28;19938;-58
2021/05/05 04:14:47;;;;;;;;;;;21.40;68.30;;;;;;5103455;28;19916;-58
2021/05/05 04:17:13;;;;;;;;;;;21.40;68.20;;;;;;5103778;28;19916;-58
2021/05/05 04:19:39;;;;;;;;;;;21.40;68.20;;;;;;5103827;28;19915;-57
2021/05/05 04:22:04;;;;;;;;;;;21.40;68.30;;;;;;5104290;28;19908;-56
2021/05/05 04:24:30;;;;;;;;;;;21.40;68.20;;;;;;5104117;28;19915;-58
2021/05/05 04:26:56;;;;;;;;;;;21.40;68.40;;;;;;5085423;28;19908;-57
2021/05/05 04:29:22;;;;;;;;;;;21.40;68.30;;;;;;5103754;28;20365;-56
2021/05/05 04:31:48;;;;;;;;;;;21.40;68.30;;;;;;5103127;28;19910;-57
2021/05/05 04:34:15;;;;;;;;;;;21.40;68.40;;;;;;5103877;28;20293;-56
2021/05/05 04:36:41;;;;;;;;;;;21.40;68.30;;;;;;5103965;28;19930;-58
2021/05/05 04:39:06;;;;;;;;;;;21.40;68.30;;;;;;5103636;28;19916;-54
2021/05/05 04:41:32;;;;;;;;;;;21.40;68.30;;;;;;5103141;28;19908;-56
2021/05/05 04:43:58;;;;;;;;;;;21.40;68.30;;;;;;5103808;28;19915;-55
2021/05/05 04:46:24;;;;;;;;;;;21.40;68.40;;;;;;5102951;28;19912;-55
2021/05/05 04:48:50;;;;;;;;;;;21.40;68.20;;;;;;5099709;28;19922;-55
2021/05/05 04:51:16;;;;;;;;;;;21.40;68.40;;;;;;5103214;28;20570;-57
2021/05/05 04:53:42;;;;;;;;;;;21.30;68.20;;;;;;5102946;28;19908;-56
2021/05/05 04:56:08;;;;;;;;;;;21.30;68.20;;;;;;5102967;28;19963;-55
2021/05/05 04:58:34;;;;;;;;;;;21.30;68.30;;;;;;5103387;28;19933;-55
2021/05/05 05:01:00;;;;;;;;;;;21.30;68.30;;;;;;5102949;28;19912;-55
2021/05/05 05:03:25;;;;;;;;;;;21.30;68.30;;;;;;5103336;28;19911;-56
2021/05/05 05:05:51;;;;;;;;;;;21.30;68.30;;;;;;5103110;28;19912;-55
2021/05/05 05:08:17;;;;;;;;;;;21.30;68.40;;;;;;5103197;28;19918;-53
2021/05/05 05:10:44;;;;;;;;;;;21.30;68.30;;;;;;5100783;28;20006;-54
2021/05/05 05:13:10;;;;;;;;;;;21.30;68.40;;;;;;5091331;28;19912;-56
2021/05/05 05:15:36;;;;;;;;;;;21.30;68.40;;;;;;5089015;28;19911;-55
2021/05/05 05:18:02;;;;;;;;;;;21.30;68.40;;;;;;5091246;28;20316;-56
2021/05/05 05:20:28;;;;;;;;;;;21.30;68.40;;;;;;5092745;28;19916;-55
2021/05/05 05:22:55;;;;;;;;;;;21.30;68.40;;;;;;5096830;28;19904;-56
2021/05/05 05:25:21;;;;;;;;;;;21.30;68.50;;;;;;5091880;28;19915;-56
2021/05/05 05:27:47;;;;;;;;;;;21.30;68.40;;;;;;5095412;28;19917;-57
2021/05/05 05:30:13;;;;;;;;;;;21.30;68.50;;;;;;5093215;28;19917;-57
2021/05/05 05:32:39;;;;;;;;;;;21.30;68.40;;;;;;5095997;28;19908;-54
2021/05/05 05:35:05;;;;;;;;;;;21.30;68.40;;;;;;5093223;28;19904;-54
2021/05/05 05:37:31;;;;;;;;;;;21.20;68.40;;;;;;5094357;28;19919;-56
2021/05/05 05:39:57;;;;;;;;;;;21.30;68.50;;;;;;5087463;28;19984;-56
2021/05/05 05:42:23;;;;;;;;;;;21.30;68.40;;;;;;5090841;28;19939;-54
2021/05/05 05:44:49;;;;;;;;;;;21.20;68.30;;;;;;5091722;28;19918;-55
2021/05/05 05:47:15;;;;;;;;;;;21.20;68.30;;;;;;5098151;28;19904;-55
2021/05/05 05:49:41;;;;;;;;;;;21.20;68.40;;;;;;5093583;28;20448;-55
2021/05/05 05:52:07;;;;;;;;;;;21.20;68.30;;;;;;5090591;28;19913;-55
2021/05/05 05:54:33;;;;;;;;;;;21.20;68.30;;;;;;5089796;28;19971;-55
2021/05/05 05:56:59;;;;;;;;;;;21.20;68.40;;;;;;5086472;28;19905;-56
2021/05/05 05:59:24;;;;;;;;;;;21.20;68.40;;;;;;5091637;28;19966;-54
2021/05/05 06:01:50;;;;;;;;;;;21.20;68.40;;;;;;5090599;28;19904;-56
2021/05/05 06:04:17;;;;;;;;;;;21.20;68.40;;;;;;5098226;28;19971;-55
2021/05/05 06:06:43;;;;;;;;;;;21.20;68.40;;;;;;5089873;28;19908;-56
2021/05/05 06:09:09;;;;;;;;;;;21.20;68.40;;;;;;5093284;28;19919;-56
2021/05/05 06:11:35;;;;;;;;;;;21.20;68.40;;;;;;5088912;28;19984;-54
2021/05/05 06:14:01;;;;;;;;;;;21.20;68.40;;;;;;5070069;28;19908;-54
2021/05/05 06:16:27;;;;;;;;;;;21.20;68.40;;;;;;5093746;28;19912;-56
2021/05/05 06:18:52;;;;;;;;;;;21.20;68.30;;;;;;5098811;28;19908;-54
2021/05/05 06:21:18;;;;;;;;;;;21.10;68.30;;;;;;5097371;28;20006;-54
2021/05/05 06:23:44;;;;;;;;;;;21.10;68.40;;;;;;5092364;28;19908;-55
2021/05/05 06:26:10;;;;;;;;;;;21.10;68.40;;;;;;5096098;28;19982;-55
2021/05/05 06:28:36;;;;;;;;;;;21.10;68.40;;;;;;5087730;28;19904;-55
2021/05/05 06:31:02;;;;;;;;;;;21.10;68.40;;;;;;5098235;28;19980;-54
2021/05/05 06:33:28;;;;;;;;;;;21.10;68.40;;;;;;5089525;28;19908;-56
2021/05/05 06:35:54;;;;;;;;;;;21.10;68.50;;;;;;5093070;28;19927;-55
2021/05/05 06:38:20;;;;;;;;;;;21.10;68.40;;;;;;5096702;28;19905;-55
2021/05/05 06:40:46;;;;;;;;;;;21.10;68.40;;;;;;5098273;28;19920;-54
2021/05/05 06:43:12;;;;;;;;;;;21.10;68.40;;;;;;5101707;28;20026;-53
2021/05/05 06:45:38;;;;;;;;;;;21.10;68.40;;;;;;5095944;28;19908;-56
2021/05/05 06:48:04;;;;;;;;;;;21.10;68.40;;;;;;5089319;28;19909;-55
2021/05/05 06:50:30;;;;;;;;;;;21.10;68.40;;;;;;5090067;28;19908;-54
2021/05/05 06:52:56;;;;;;;;;;;21.10;68.40;;;;;;5096231;28;19914;-56
2021/05/05 06:55:22;;;;;;;;;;;21.00;68.20;;;;;;5094010;28;19908;-54
2021/05/05 06:57:49;;;;;;;;;;;21.00;68.30;;;;;;5095902;28;19912;-55
2021/05/05 07:00:15;;;;;;;;;;;21.00;68.30;;;;;;5092694;28;19912;-56
2021/05/05 07:02:41;;;;;;;;;;;21.00;68.30;;;;;;5090854;28;19915;-55
2021/05/05 07:05:07;;;;;;;;;;;21.00;68.30;;;;;;5092553;28;19912;-54
2021/05/05 07:07:33;;;;;;;;;;;21.00;68.30;;;;;;5093605;28;19936;-55
2021/05/05 07:09:59;;;;;;;;;;;21.00;68.30;;;;;;5095215;28;19934;-54
2021/05/05 07:12:24;;;;;;;;;;;21.00;68.20;;;;;;5089959;28;19983;-56
2021/05/05 07:14:50;;;;;;;;;;;21.00;68.20;;;;;;5097414;28;19926;-56
2021/05/05 07:17:16;;;;;;;;;;;21.00;68.30;;;;;;5092232;28;20483;-54
2021/05/05 07:19:42;;;;;;;;;;;21.00;68.30;;;;;;5094035;28;19917;-55
2021/05/05 07:22:08;;;;;;;;;;;20.90;69.00;;;;;;5089096;28;19904;-56
2021/05/05 07:24:34;;;;;;;;;;;20.90;68.30;;;;;;5089450;28;19915;-53
2021/05/05 07:27:00;;;;;;;;;;;21.00;68.30;;;;;;5099317;28;19904;-54
2021/05/05 07:29:26;;;;;;;;;;;21.00;68.40;;;;;;5094739;28;19907;-56
2021/05/05 07:31:52;;;;;;;;;;;20.90;68.40;;;;;;5093763;28;19927;-55
2021/05/05 07:34:17;;;;;;;;;;;20.90;68.40;;;;;;5095847;28;19912;-54
2021/05/05 07:36:46;;;;;;;;;;;20.90;68.40;;;;;;5093048;28;19909;-55
2021/05/05 07:39:26;;;;;;;;;;;20.90;68.30;;;;;;5092478;28;19939;-54
2021/05/05 07:49:59;;;;;;;;;;;20.90;68.30;;;;;;5091618;28;19912;-55
2021/05/05 07:52:23;;;;;;;;;;;20.90;68.30;;;;;;5085077;28;19909;-54
2021/05/05 07:54:49;;;;;;;;;;;20.90;68.30;;;;;;5099118;28;19931;-55
2021/05/05 07:57:15;;;;;;;;;;;20.90;68.30;;;;;;5095293;28;20301;-55
2021/05/05 07:59:41;;;;;;;;;;;20.80;68.20;;;;;;5093562;28;19916;-55
2021/05/05 08:02:07;;;;;;;;;;;20.80;68.20;;;;;;5089607;28;19912;-57
2021/05/05 08:04:33;;;;;;;;;;;20.80;68.20;;;;;;5097154;28;19908;-55
2021/05/05 08:06:59;;;;;;;;;;;20.80;68.20;;;;;;5096974;28;19912;-54
2021/05/05 08:09:25;;;;;;;;;;;20.80;68.20;;;;;;5098044;28;19908;-54
2021/05/05 08:11:51;;;;;;;;;;;20.80;68.30;;;;;;5086826;28;19935;-55
2021/05/05 08:14:18;;;;;;;;;;;20.80;68.30;;;;;;5083847;28;19912;-55
2021/05/05 08:16:44;;;;;;;;;;;20.80;68.30;;;;;;5065116;28;19908;-54
2021/05/05 08:19:10;;;;;;;;;;;20.80;68.30;;;;;;5083815;28;19912;-57
2021/05/05 08:21:36;;;;;;;;;;;20.80;68.30;;;;;;5083645;28;20636;-53
2021/05/05 08:24:02;;;;;;;;;;;20.70;68.60;;;;;;5083478;28;19915;-55
2021/05/05 08:26:30;;;;;;;;;;;20.70;68.30;;;;;;5065654;28;19908;-54
2021/05/05 08:28:56;;;;;;;;;;;20.70;68.30;;;;;;5083687;28;19908;-56
2021/05/05 08:31:23;;;;;;;;;;;20.70;68.30;;;;;;5083378;28;19931;-54
2021/05/05 08:33:48;;;;;;;;;;;20.70;68.40;;;;;;5083237;28;19908;-56
2021/05/05 08:36:14;;;;;;;;;;;20.70;68.30;;;;;;5082873;28;19950;-53
2021/05/05 08:38:40;;;;;;;;;;;20.70;68.40;;;;;;5083294;28;19904;-56
2021/05/05 08:41:08;;;;;;;;;;;20.70;68.40;;;;;;5082703;28;19919;-53
2021/05/05 08:43:34;;;;;;;;;;;20.60;68.30;;;;;;5083118;28;19923;-55
2021/05/05 08:46:00;;;;;;;;;;;20.70;68.30;;;;;;5083024;28;19904;-55
2021/05/05 08:48:26;;;;;;;;;;;20.60;68.20;;;;;;5082978;28;19908;-56
2021/05/05 08:50:52;;;;;;;;;;;20.70;68.20;;;;;;5082953;28;19916;-56
2021/05/05 08:53:18;;;;;;;;;;;20.70;68.30;;;;;;5083239;28;19905;-56
2021/05/05 08:55:44;;;;;;;;;;;20.60;68.20;;;;;;5082845;28;20357;-56
2021/05/05 08:58:10;;;;;;;;;;;20.60;68.20;;;;;;5083118;28;19956;-56
2021/05/05 09:00:36;;;;;;;;;;;20.60;68.20;;;;;;5082455;28;19919;-55
2021/05/05 09:03:04;;;;;;;;;;;20.60;68.20;;;;;;5082814;28;19943;-54
2021/05/05 09:05:48;;;;;;;;;;;20.60;68.30;;;;;;5082778;28;19912;-54
2021/05/05 09:08:15;;;;;;;;;;;20.60;68.20;;;;;;5082740;28;19904;-55
2021/05/05 09:10:55;;;;;;;;;;;20.60;68.30;;;;;;5086228;28;19911;-55
2021/05/05 09:13:40;;;;;;;;;;;20.60;68.40;;;;;;5101464;28;19912;-54
2021/05/05 09:16:09;;;;;;;;;;;20.60;68.30;;;;;;5102524;28;20002;-55
2021/05/05 09:18:51;;;;;;;;;;;20.60;68.30;;;;;;5103073;28;19908;-55
2021/05/05 09:21:43;;;;;;;;;;;20.50;68.30;;;;;;5099073;28;19915;-54
2021/05/05 09:24:14;;;;;;;;;;;20.50;68.30;;;;;;5099115;28;19908;-55
2021/05/05 09:26:40;;;;;;;;;;;20.50;68.30;;;;;;5102542;28;19904;-55
2021/05/05 09:29:06;;;;;;;;;;;20.50;68.30;;;;;;5102973;28;19915;-56
2021/05/05 09:31:33;;;;;;;;;;;20.50;68.30;;;;;;5102379;28;19908;-54
2021/05/05 09:33:59;;;;;;;;;;;20.50;68.40;;;;;;5102929;28;19954;-57
2021/05/05 09:36:24;;;;;;;;;;;20.50;68.30;;;;;;5102379;28;19912;-55
2021/05/05 09:38:51;;;;;;;;;;;20.50;68.40;;;;;;5102710;28;19911;-53
2021/05/05 09:41:17;;;;;;;;;;;20.50;68.30;;;;;;5101654;28;19919;-53
2021/05/05 09:43:42;;;;;;;;;;;20.40;68.30;;;;;;5102998;28;19907;-54
2021/05/05 09:46:27;;;;;;;;;;;20.40;68.30;;;;;;5101882;28;19947;-55
2021/05/05 09:48:53;;;;;;;;;;;20.40;68.20;;;;;;5101508;28;19908;-56
2021/05/05 09:51:20;;;;;;;;;;;20.40;68.30;;;;;;5102347;28;19915;-56
2021/05/05 09:53:50;;;;;;;;;;;20.40;68.30;;;;;;5084545;28;19915;-56
2021/05/05 09:56:16;;;;;;;;;;;20.40;68.40;;;;;;5117315;28;19981;-57
2021/05/05 09:58:42;;;;;;;;;;;20.40;68.30;;;;;;5102799;28;20449;-54
2021/05/05 10:01:12;;;;;;;;;;;20.40;68.30;;;;;;5101827;28;20334;-56
2021/05/05 10:03:44;;;;;;;;;;;20.40;68.30;;;;;;5102323;28;19982;-56
2021/05/05 10:06:19;;;;;;;;;;;20.40;68.30;;;;;;5101997;28;19908;-56
2021/05/05 10:08:45;;;;;;;;;;;20.40;68.30;;;;;;5102119;28;19904;-55
2021/05/05 10:11:11;;;;;;;;;;;20.30;68.30;;;;;;5101429;28;20376;-55
2021/05/05 10:13:37;;;;;;;;;;;20.30;68.20;;;;;;5102245;28;19919;-54
2021/05/05 10:16:03;;;;;;;;;;;20.40;68.40;;;;;;5083838;28;20708;-55
2021/05/05 10:18:29;;;;;;;;;;;20.30;68.30;;;;;;5102438;28;19995;-54
2021/05/05 10:20:54;;;;;;;;;;;20.30;68.30;;;;;;5084021;28;20315;-54
2021/05/05 10:23:20;;;;;;;;;;;20.30;68.30;;;;;;5102385;28;19904;-55
2021/05/05 10:25:49;;;;;;;;;;;20.30;68.30;;;;;;5066959;28;19954;-54
2021/05/05 10:28:16;;;;;;;;;;;20.30;68.30;;;;;;5101811;28;20002;-57
2021/05/05 10:30:42;;;;;;;;;;;20.30;68.30;;;;;;5101938;28;20356;-55
2021/05/05 10:33:18;;;;;;;;;;;20.30;68.40;;;;;;5101799;28;19908;-55
2021/05/05 10:35:44;;;;;;;;;;;20.30;68.40;;;;;;5101938;28;19904;-55
2021/05/05 10:38:30;;;;;;;;;;;20.30;68.40;;;;;;5101490;28;19912;-53
2021/05/05 10:41:06;;;;;;;;;;;20.30;68.40;;;;;;5101704;28;19938;-56
2021/05/05 10:43:48;;;;;;;;;;;20.30;68.40;;;;;;5102196;28;19907;-54
2021/05/05 10:46:30;;;;;;;;;;;20.20;68.30;;;;;;5101526;28;19908;-57
2021/05/05 10:49:08;;;;;;;;;;;20.30;68.40;;;;;;5101542;28;19908;-53
2021/05/05 10:51:47;;;;;;;;;;;20.20;68.40;;;;;;5101148;28;19908;-56
2021/05/05 10:54:16;;;;;;;;;;;20.30;68.40;;;;;;5101476;28;19923;-56
2021/05/05 10:56:45;;;;;;;;;;;20.20;68.30;;;;;;5101871;28;19908;-56
2021/05/05 10:59:12;;;;;;;;;;;20.20;68.20;;;;;;5098273;28;19916;-55
2021/05/05 11:01:39;;;;;;;;;;;20.20;68.20;;;;;;5104912;28;19908;-55
2021/05/05 11:04:05;;;;;;;;;;;20.20;68.30;;;;;;5105132;28;19915;-57
2021/05/05 11:06:32;;;;;;;;;;;20.20;68.30;;;;;;5104500;28;19908;-56
2021/05/05 11:09:15;;;;;;;;;;;20.20;68.30;;;;;;5087084;28;19904;-54
2021/05/05 11:11:44;;;;;;;;;;;20.20;68.40;;;;;;5104626;28;19920;-54
2021/05/05 11:14:32;;;;;;;;;;;20.20;68.40;;;;;;5104830;28;19908;-56
2021/05/05 11:17:02;;;;;;;;;;;20.20;68.40;;;;;;5102498;28;19991;-57
2021/05/05 11:19:37;;;;;;;;;;;20.20;68.40;;;;;;5104655;28;20222;-57
2021/05/05 11:22:04;;;;;;;;;;;20.20;68.30;;;;;;5104943;28;19923;-56
2021/05/05 11:24:31;;;;;;;;;;;20.20;68.40;;;;;;5118648;28;19964;-54
2021/05/05 11:26:57;;;;;;;;;;;20.20;68.40;;;;;;5104612;28;20678;-54
2021/05/05 11:29:32;;;;;;;;;;;20.20;68.30;;;;;;5104703;28;19930;-56
2021/05/05 11:31:59;;;;;;;;;;;20.20;68.30;;;;;;5104313;28;20018;-56
2021/05/05 11:34:25;;;;;;;;;;;20.20;68.40;;;;;;5104618;28;19912;-53
2021/05/05 11:36:57;;;;;;;;;;;20.20;68.50;;;;;;5104520;28;19914;-54
2021/05/05 11:39:27;;;;;;;;;;;20.20;68.40;;;;;;5104622;28;19935;-54
2021/05/05 11:41:56;;;;;;;;;;;20.20;68.50;;;;;;5101510;28;19908;-54
2021/05/05 11:44:35;;;;;;;;;;;20.20;68.40;;;;;;5100953;28;19974;-56
2021/05/05 11:47:01;;;;;;;;;;;20.20;68.40;;;;;;5101672;28;19908;-56
2021/05/05 11:49:34;;;;;;;;;;;20.20;68.40;;;;;;5104859;28;19919;-54
2021/05/05 11:52:17;;;;;;;;;;;20.20;68.50;;;;;;5103574;28;19912;-54
2021/05/05 11:54:43;;;;;;;;;;;20.10;68.40;;;;;;5104235;28;19907;-55
2021/05/05 11:57:09;;;;;;;;;;;20.20;68.40;;;;;;5103529;28;19951;-52
2021/05/05 11:59:35;;;;;;;;;;;20.20;68.40;;;;;;5104012;28;19911;-53
2021/05/05 12:02:04;;;;;;;;;;;20.20;68.40;;;;;;5103653;28;19908;-56
2021/05/05 12:04:36;;;;;;;;;;;20.20;68.40;;;;;;5099962;28;19951;-55
2021/05/05 12:07:02;;;;;;;;;;;20.20;68.40;;;;;;5100849;28;19916;-55
2021/05/05 12:09:31;;;;;;;;;;;20.20;68.50;;;;;;5104252;28;19912;-53
2021/05/05 12:12:14;;;;;;;;;;;20.10;68.40;;;;;;5087434;28;19924;-56
2021/05/05 12:14:41;;;;;;;;;;;20.20;68.40;;;;;;5082203;28;19908;-56
2021/05/05 12:17:16;;;;;;;;;;;20.20;68.40;;;;;;5083517;28;20698;-55
2021/05/05 12:19:56;;;;;;;;;;;20.10;68.40;;;;;;5083449;28;20472;-54
2021/05/05 12:22:22;;;;;;;;;;;20.10;68.40;;;;;;5082212;28;20353;-54
2021/05/05 12:25:07;;;;;;;;;;;20.10;68.40;;;;;;5083498;28;19909;-56
2021/05/05 12:27:33;;;;;;;;;;;20.10;68.50;;;;;;5079300;28;19905;-54
2021/05/05 12:30:03;;;;;;;;;;;20.10;68.50;;;;;;5083303;28;20567;-53
2021/05/05 12:32:42;;;;;;;;;;;20.10;68.40;;;;;;5082805;28;19968;-53
2021/05/05 12:35:09;;;;;;;;;;;20.10;68.40;;;;;;5079711;28;20022;-54
2021/05/05 12:37:34;;;;;;;;;;;20.10;68.50;;;;;;5065106;28;19916;-59
2021/05/05 12:40:00;;;;;;;;;;;20.10;68.50;;;;;;5083111;28;19916;-55
2021/05/05 12:42:33;;;;;;;;;;;20.10;68.50;;;;;;5082903;28;19972;-55
2021/05/05 12:45:15;;;;;;;;;;;20.10;68.50;;;;;;5082770;28;19905;-55
2021/05/05 12:47:41;;;;;;;;;;;20.10;68.40;;;;;;5082276;28;19908;-54
2021/05/05 12:50:08;;;;;;;;;;;20.10;68.40;;;;;;5082529;28;19923;-53
2021/05/05 12:52:38;;;;;;;;;;;20.10;69.20;;;;;;5083079;28;19916;-55
2021/05/05 12:55:22;;;;;;;;;;;20.10;68.40;;;;;;5082200;28;19909;-53
2021/05/05 12:58:02;;;;;;;;;;;20.10;68.40;;;;;;5079779;28;19943;-54
2021/05/05 13:00:28;;;;;;;;;;;20.10;68.40;;;;;;5082446;28;19967;-53
2021/05/05 13:03:04;;;;;;;;;;;20.10;68.40;;;;;;5082655;28;19987;-52
2021/05/05 13:05:30;;;;;;;;;;;20.10;68.30;;;;;;5082172;28;19908;-52
2021/05/05 13:08:09;;;;;;;;;;;20.20;68.40;;;;;;5082245;28;19908;-53
2021/05/05 13:10:41;;;;;;;;;;;20.20;68.30;;;;;;5083839;28;20510;-55
2021/05/05 13:13:11;;;;;;;;;;;20.10;68.20;;;;;;5102973;28;20431;-52
2021/05/05 13:15:52;;;;;;;;;;;20.20;68.30;;;;;;5102183;28;19908;-54
2021/05/05 13:31:04;;;;;;;;;;;20.20;68.30;;;;;;5027198;28;20365;-54
2021/05/05 13:33:04;;;;;;;;;;;20.20;68.30;;;;;;5022605;28;19973;-53
2021/05/05 13:35:32;;;;;;;;;;;20.20;68.50;;;;;;5031137;28;19912;-54
2021/05/05 13:37:57;;;;;;;;;;;20.20;69.20;;;;;;5011521;28;19913;-53
2021/05/05 13:40:24;;;;;;;;;;;20.20;68.70;;;;;;5028195;28;19914;-53
2021/05/05 13:42:52;;;;;;;;;;;20.20;68.80;;;;;;5030183;28;19915;-54
2021/05/05 13:45:19;;;;;;;;;;;20.20;68.80;;;;;;5021170;28;19910;-54
2021/05/05 13:47:55;;;;;;;;;;;20.20;68.90;;;;;;5031547;28;20374;-53
2021/05/05 13:50:21;;;;;;;;;;;20.30;68.90;;;;;;5006491;28;19929;-54
2021/05/05 13:52:51;;;;;;;;;;;20.30;69.00;;;;;;5029218;28;19909;-54
2021/05/05 13:55:17;;;;;;;;;;;20.30;69.00;;;;;;5024289;28;19909;-52
2021/05/05 13:57:43;;;;;;;;;;;20.30;69.10;;;;;;5014394;28;20442;-53
2021/05/05 14:00:09;;;;;;;;;;;20.30;69.00;;;;;;5034829;28;19913;-54
2021/05/05 14:02:36;;;;;;;;;;;20.30;69.10;;;;;;5068626;28;19904;-52
2021/05/05 14:05:02;;;;;;;;;;;20.30;69.10;;;;;;5101694;28;19908;-54
2021/05/05 14:07:30;;;;;;;;;;;20.30;69.10;;;;;;5102357;28;19912;-52
2021/05/05 14:09:56;;;;;;;;;;;20.40;69.20;;;;;;5102224;28;19947;-49
2021/05/05 14:12:22;;;;;;;;;;;20.40;69.20;;;;;;5100691;28;20613;-53
2021/05/05 14:14:48;;;;;;;;;;;20.30;69.00;;;;;;5102057;28;19926;-56
2021/05/05 14:17:14;;;;;;;;;;;20.40;69.10;;;;;;5101770;28;20014;-55
2021/05/05 14:19:41;;;;;;;;;;;20.40;69.10;;;;;;5084023;28;19916;-53
2021/05/05 14:22:07;;;;;;;;;;;20.40;69.20;;;;;;5102098;28;19916;-52
2021/05/05 14:24:33;;;;;;;;;;;20.40;69.20;;;;;;5101838;28;19951;-53
2021/05/05 14:26:59;;;;;;;;;;;20.40;69.20;;;;;;5101171;28;19911;-53
2021/05/05 14:29:25;;;;;;;;;;;20.40;69.20;;;;;;5101909;28;19907;-54
2021/05/05 14:31:51;;;;;;;;;;;20.40;69.20;;;;;;5101731;28;20736;-55
2021/05/05 14:34:17;;;;;;;;;;;20.50;69.30;;;;;;5102009;28;19908;-53
2021/05/05 14:36:43;;;;;;;;;;;20.50;69.30;;;;;;5105854;28;19983;-54
2021/05/05 14:39:13;;;;;;;;;;;20.50;69.30;;;;;;5105915;28;19974;-54